createdAt,value
2022-11-07T00:02:06.600Z,100606.78
2022-11-07T00:07:10.731Z,100610.22
2022-11-07T00:12:14.449Z,100615.25
2022-11-07T00:17:19.771Z,100616.03
2022-11-07T00:22:23.483Z,100621.94
2022-11-07T00:27:27.275Z,100622.75
2022-11-07T00:32:32.343Z,100622.69
2022-11-07T00:37:35.973Z,100629.28
2022-11-07T00:42:39.699Z,100636.16
2022-11-07T00:47:44.726Z,100636.72
2022-11-07T00:52:48.411Z,100640.87
2022-11-07T00:57:52.126Z,100647.75
2022-11-07T01:03:11.564Z,100641.03
2022-11-07T01:08:15.311Z,100654.63
2022-11-07T01:13:19.086Z,100657.97
2022-11-07T01:18:24.086Z,100667.53
2022-11-07T01:23:27.743Z,100675.50
2022-11-07T01:28:31.438Z,100678.13
2022-11-07T01:33:36.834Z,100681.53
2022-11-07T01:38:42.464Z,100690.16
2022-11-07T01:43:47.649Z,100685.66
2022-11-07T01:48:57.672Z,100689.38
2022-11-07T01:54:01.729Z,100686.91
2022-11-07T01:59:06.229Z,100679.69
2022-11-07T02:04:13.050Z,100689.28
2022-11-07T02:09:16.993Z,100690.63
2022-11-07T02:14:20.819Z,100680.41
2022-11-07T02:19:34.376Z,100678.44
2022-11-07T02:24:41.117Z,100692.25
2022-11-07T02:29:48.606Z,100690.66
2022-11-07T02:34:59.071Z,100687.69
2022-11-07T02:40:07.655Z,100684.63
2022-11-07T02:45:14.932Z,100672.34
2022-11-07T02:50:18.939Z,100675.59
2022-11-07T02:55:24.006Z,100678.19
2022-11-07T03:00:27.771Z,100667.91
2022-11-07T03:05:31.471Z,100667.91
2022-11-07T03:10:36.467Z,100670.34
2022-11-07T03:15:40.203Z,100672.94
2022-11-07T03:20:43.866Z,100685.75
2022-11-07T03:25:48.871Z,100667.84
2022-11-07T03:30:52.740Z,100676.59
2022-11-07T03:35:56.398Z,100677.63
2022-11-07T03:41:01.398Z,100684.75
2022-11-07T03:46:05.110Z,100672.75
2022-11-07T03:51:10.055Z,100685.88
2022-11-07T03:56:15.074Z,100676.69
2022-11-07T04:01:18.819Z,100675.16
2022-11-07T04:06:23.408Z,100678.88
2022-11-07T04:11:46.074Z,100674.59
2022-11-07T04:17:07.495Z,100686.62
2022-11-07T04:22:11.229Z,100690.00
2022-11-07T04:27:34.551Z,100691.81
2022-11-07T04:32:38.238Z,100690.78
2022-11-07T04:37:42.504Z,100693.56
2022-11-07T04:42:49.006Z,100678.91
2022-11-07T04:47:52.838Z,100697.09
2022-11-07T04:52:56.618Z,100688.69
2022-11-07T04:58:01.605Z,100706.31
2022-11-07T05:03:05.613Z,100696.06
2022-11-07T05:08:09.878Z,100694.34
2022-11-07T05:13:15.080Z,100691.00
2022-11-07T05:18:21.178Z,100695.50
2022-11-07T05:23:25.212Z,100700.56
2022-11-07T05:28:38.713Z,100694.53
2022-11-07T05:33:43.482Z,100694.44
2022-11-07T05:38:48.913Z,100706.59
2022-11-07T05:43:53.959Z,100693.59
2022-11-07T05:49:00.914Z,100695.41
2022-11-07T05:54:05.243Z,100698.75
2022-11-07T05:59:11.239Z,100689.13
2022-11-07T06:04:14.877Z,100690.78
2022-11-07T06:09:18.530Z,100691.66
2022-11-07T06:14:23.844Z,100704.00
2022-11-07T06:19:27.544Z,100698.94
2022-11-07T06:24:31.202Z,100707.66
2022-11-07T06:29:36.230Z,100699.97
2022-11-07T06:34:39.948Z,100705.16
2022-11-07T06:39:43.742Z,100718.00
2022-11-07T06:44:48.750Z,100725.78
2022-11-07T06:49:52.491Z,100734.88
2022-11-07T06:54:56.182Z,100748.69
2022-11-07T07:00:01.241Z,100741.00
2022-11-07T07:05:05.298Z,100757.22
2022-11-07T07:10:10.213Z,100760.88
2022-11-07T07:15:15.271Z,100755.50
2022-11-07T07:20:19.116Z,100766.00
2022-11-07T07:25:23.121Z,100771.28
2022-11-07T07:30:28.145Z,100779.91
2022-11-07T07:35:32.128Z,100770.53
2022-11-07T07:40:35.779Z,100772.25
2022-11-07T07:45:40.768Z,100781.88
2022-11-07T07:50:44.576Z,100790.09
2022-11-07T07:55:48.802Z,100798.09
2022-11-07T08:00:54.982Z,100790.41
2022-11-07T08:05:59.850Z,100789.13
2022-11-07T08:11:05.511Z,100800.44
2022-11-07T08:16:11.020Z,100789.25
2022-11-07T08:21:14.785Z,100792.03
2022-11-07T08:26:18.475Z,100808.97
2022-11-07T08:31:23.627Z,100801.88
2022-11-07T08:36:27.774Z,100825.78
2022-11-07T08:41:31.473Z,100824.44
2022-11-07T08:46:36.526Z,100823.56
2022-11-07T08:51:40.241Z,100830.72
2022-11-07T08:56:43.963Z,100842.81
2022-11-07T09:02:26.620Z,100846.00
2022-11-07T09:07:12.663Z,100842.75
2022-11-07T09:12:16.306Z,100850.34
2022-11-07T09:17:21.343Z,100849.69
2022-11-07T09:22:25.084Z,100853.38
2022-11-07T09:27:28.746Z,100856.75
2022-11-07T09:32:48.776Z,100853.81
2022-11-07T09:37:52.609Z,100863.44
2022-11-07T09:43:09.296Z,100866.88
2022-11-07T09:48:22.136Z,100858.78
2022-11-07T09:53:31.661Z,100860.66
2022-11-07T09:58:39.219Z,100848.69
2022-11-07T10:04:10.293Z,100864.13
2022-11-07T10:09:16.130Z,100849.44
2022-11-07T10:14:29.741Z,100869.03
2022-11-07T10:20:05.342Z,100881.63
2022-11-07T10:25:21.318Z,100880.06
2022-11-07T10:30:25.011Z,100888.47
2022-11-07T10:35:32.980Z,100889.69
2022-11-07T10:40:41.497Z,100899.44
2022-11-07T10:45:45.726Z,100886.53
2022-11-07T10:50:54.807Z,100891.03
2022-11-07T10:55:59.475Z,100906.69
2022-11-07T11:01:06.422Z,100893.41
2022-11-07T11:06:20.647Z,100887.28
2022-11-07T11:11:33.072Z,100880.81
2022-11-07T11:16:39.941Z,100891.03
2022-11-07T11:21:46.994Z,100883.97
2022-11-07T11:26:53.046Z,100881.50
2022-11-07T11:31:59.590Z,100872.94
2022-11-07T11:37:10.488Z,100872.97
2022-11-07T11:42:26.167Z,100866.44
2022-11-07T11:47:37.714Z,100872.66
2022-11-07T11:52:43.164Z,100867.72
2022-11-07T11:57:54.318Z,100864.37
2022-11-07T12:03:37.904Z,100858.75
2022-11-07T12:09:18.148Z,100870.03
2022-11-07T12:14:57.062Z,100865.47
2022-11-07T12:20:18.015Z,100869.09
2022-11-07T12:25:29.775Z,100866.34
2022-11-07T12:30:43.902Z,100870.28
2022-11-07T12:35:55.321Z,100872.31
2022-11-07T12:41:08.111Z,100868.56
2022-11-07T12:46:22.303Z,100866.94
2022-11-07T12:51:36.166Z,100876.03
2022-11-07T12:56:41.402Z,100870.63
2022-11-07T13:01:50.975Z,100866.22
2022-11-07T13:07:00.987Z,100866.28
2022-11-07T13:12:14.655Z,100860.81
2022-11-07T13:17:20.480Z,100864.37
2022-11-07T13:22:32.979Z,100854.78
2022-11-07T13:27:40.765Z,100857.47
2022-11-07T13:32:46.270Z,100849.03
2022-11-07T13:37:55.371Z,100843.94
2022-11-07T13:43:03.405Z,100848.50
2022-11-07T13:48:16.584Z,100847.03
2022-11-07T13:53:26.245Z,100837.94
2022-11-07T13:58:33.301Z,100844.94
2022-11-07T14:03:37.084Z,100842.62
2022-11-07T14:08:45.032Z,100837.16
2022-11-07T14:13:53.679Z,100843.22
2022-11-07T14:19:00.011Z,100841.28
2022-11-07T14:24:04.386Z,100850.87
2022-11-07T14:29:09.492Z,100850.84
2022-11-07T14:34:19.610Z,100851.88
2022-11-07T14:39:25.365Z,100849.22
2022-11-07T14:44:53.255Z,100851.75
2022-11-07T14:49:58.751Z,100840.69
2022-11-07T14:55:08.922Z,100851.69
2022-11-07T15:00:17.289Z,100850.87
2022-11-07T15:05:24.762Z,100847.44
2022-11-07T15:10:34.455Z,100853.84
2022-11-07T15:15:39.504Z,100852.12
2022-11-07T15:20:43.207Z,100844.97
2022-11-07T15:25:54.376Z,100850.91
2022-11-07T15:31:01.481Z,100845.53
2022-11-07T15:36:06.016Z,100849.72
2022-11-07T15:41:11.379Z,100836.72
2022-11-07T15:46:25.397Z,100836.66
2022-11-07T15:51:29.113Z,100834.13
2022-11-07T15:56:32.828Z,100837.41
2022-11-07T16:01:38.114Z,100838.38
2022-11-07T16:06:45.973Z,100843.59
2022-11-07T16:11:50.073Z,100846.13
2022-11-07T16:16:55.139Z,100850.50
2022-11-07T16:21:58.875Z,100844.31
2022-11-07T16:27:02.749Z,100853.06
2022-11-07T16:32:07.877Z,100852.22
2022-11-07T16:37:12.675Z,100851.47
2022-11-07T16:42:16.997Z,100854.91
2022-11-07T16:47:23.875Z,100864.41
2022-11-07T16:52:28.194Z,100867.91
2022-11-07T16:57:33.490Z,100868.75
2022-11-07T17:02:38.637Z,100867.87
2022-11-07T17:07:42.610Z,100860.91
2022-11-07T17:12:46.262Z,100870.47
2022-11-07T17:17:54.113Z,100864.37
2022-11-07T17:23:01.644Z,100854.88
2022-11-07T17:28:05.845Z,100851.53
2022-11-07T17:33:11.042Z,100862.56
2022-11-07T17:38:17.521Z,100851.09
2022-11-07T17:43:21.526Z,100849.22
2022-11-07T17:48:26.831Z,100851.75
2022-11-07T17:53:32.291Z,100874.19
2022-11-07T17:58:35.957Z,100868.97
2022-11-07T18:03:41.283Z,100870.63
2022-11-07T18:08:52.293Z,100867.81
2022-11-07T18:13:58.529Z,100873.00
2022-11-07T18:19:04.030Z,100868.66
2022-11-07T18:24:08.305Z,100867.72
2022-11-07T18:29:13.996Z,100866.88
2022-11-07T18:34:20.543Z,100862.62
2022-11-07T18:39:24.953Z,100856.63
2022-11-07T18:44:28.758Z,100862.69
2022-11-07T18:49:34.043Z,100861.84
2022-11-07T18:54:37.846Z,100871.41
2022-11-07T18:59:41.644Z,100866.31
2022-11-07T19:04:46.916Z,100857.44
2022-11-07T19:09:50.690Z,100865.03
2022-11-07T19:14:54.531Z,100869.47
2022-11-07T19:19:59.890Z,100873.75
2022-11-07T19:25:03.603Z,100871.03
2022-11-07T19:30:09.668Z,100860.41
2022-11-07T19:35:16.201Z,100862.66
2022-11-07T19:40:20.276Z,100869.44
2022-11-07T19:45:26.269Z,100864.97
2022-11-07T19:50:31.492Z,100872.50
2022-11-07T19:55:37.117Z,100870.06
2022-11-07T20:00:41.012Z,100874.59
2022-11-07T20:05:47.850Z,100871.06
2022-11-07T20:10:51.677Z,100876.41
2022-11-07T20:15:57.565Z,100879.03
2022-11-07T20:21:04.155Z,100867.78
2022-11-07T20:26:09.046Z,100874.25
2022-11-07T20:31:13.830Z,100882.09
2022-11-07T20:36:20.028Z,100883.88
2022-11-07T20:41:24.211Z,100882.22
2022-11-07T20:46:28.475Z,100888.31
2022-11-07T20:51:33.978Z,100881.34
2022-11-07T20:56:39.268Z,100876.84
2022-11-07T21:01:43.153Z,100870.13
2022-11-07T21:06:48.638Z,100863.97
2022-11-07T21:11:52.490Z,100865.72
2022-11-07T21:16:56.203Z,100860.56
2022-11-07T21:22:01.435Z,100870.87
2022-11-07T21:27:05.911Z,100884.69
2022-11-07T21:32:09.667Z,100882.94
2022-11-07T21:37:14.765Z,100878.50
2022-11-07T21:42:18.557Z,100868.91
2022-11-07T21:47:22.280Z,100861.75
2022-11-07T21:52:27.421Z,100866.19
2022-11-07T21:57:31.142Z,100876.25
2022-11-07T22:02:35.101Z,100873.59
2022-11-07T22:07:40.217Z,100862.19
2022-11-07T22:12:43.948Z,100859.00
2022-11-07T22:17:47.604Z,100861.19
2022-11-07T22:22:52.614Z,100857.56
2022-11-07T22:27:56.277Z,100860.75
2022-11-07T22:32:59.948Z,100857.00
2022-11-07T22:38:04.965Z,100864.41
2022-11-07T22:43:08.695Z,100854.75
2022-11-07T22:48:12.399Z,100861.53
2022-11-07T22:53:17.741Z,100847.28
2022-11-07T22:58:21.613Z,100836.75
2022-11-07T23:03:25.387Z,100832.31
2022-11-07T23:08:30.454Z,100830.47
2022-11-07T23:13:34.185Z,100818.06
2022-11-07T23:18:37.834Z,100821.34
2022-11-07T23:23:43.554Z,100815.09
2022-11-07T23:28:47.726Z,100813.28
2022-11-07T23:33:51.421Z,100818.12
2022-11-07T23:38:56.482Z,100815.34
2022-11-07T23:44:00.496Z,100807.25
2022-11-07T23:49:21.817Z,100809.09
2022-11-07T23:54:44.416Z,100808.88
